Jeffboat — WDC6544 — position and weather

sailwx.info

Track history (hours):
 
Tides and Currents Weather Stations Pressure Air Temp Water Temp Dewpoint Dewpoint Depression Visibility Wind Speed Wind Dir Waves Ship Positions

Jeffboat

Owner: American Commercial Lines LLC, Jeffersonville, IN. More information available from US FCC via Universal Licensing System and Coast Guard Vessel Documentation Center.

Last reported at 2018-Feb-17 12:37 UTC. Time now 2018-Feb-22 22:56 UTC.
Position N 32°41' W 091°06'.

Length 43 m; draft 3 m.

Type: Towing. MMSI: 367057720.

Date/timePositionNaut miles runAvg speedWind from/ knotsBaromVisibWave heightAir tempDewpointWater temp
2018-Feb-17 12:37N 32°41' W 091°06'1 4.9
2018-Feb-17 12:27N 32°40' W 091°07'3 4.3
2018-Feb-17 11:40N 32°38' W 091°09'1 4.5
2018-Feb-17 11:30N 32°37' W 091°09'0 0.7
2018-Feb-17 11:00N 32°37' W 091°09'1 2.6
2018-Feb-17 10:30N 32°36' W 091°08'2 4.6
2018-Feb-17 10:00N 32°34' W 091°06'2 4.8
2018-Feb-17 09:31N 32°32' W 091°06'3 5.0
2018-Feb-17 09:00N 32°29' W 091°07'2 4.4
2018-Feb-17 08:30N 32°27' W 091°05'2 4.8
2018-Feb-17 08:01N 32°26' W 091°03'2 4.7
2018-Feb-17 07:30N 32°25' W 091°00'2 3.5
2018-Feb-17 07:00N 32°24' W 090°59'2 3.1
2018-Feb-17 06:30N 32°23' W 091°00'2 4.0
2018-Feb-17 06:00N 32°21' W 090°59'2 3.8
2018-Feb-17 05:30N 32°21' W 090°56'2 4.3
2018-Feb-17 05:00N 32°20' W 090°54'2 4.0
2018-Feb-17 04:30N 32°18' W 090°55'0 0.8
2018-Feb-17 04:00N 32°18' W 090°55'0 0.0
2018-Feb-17 03:30N 32°18' W 090°55'0 0.0
2018-Feb-17 03:00N 32°18' W 090°55'0 0.0
2018-Feb-17 02:30N 32°18' W 090°55'0 0.3
2018-Feb-17 02:00N 32°18' W 090°55'2 4.0
2018-Feb-17 01:30N 32°17' W 090°57'2 4.2
2018-Feb-17 01:00N 32°15' W 090°59'2 3.8
2018-Feb-17 00:30N 32°13' W 090°59'2 4.0
2018-Feb-17 00:00N 32°11' W 090°60'2 4.1
2018-Feb-16 23:31N 32°09' W 091°00'2 4.3
2018-Feb-16 23:00N 32°07' W 091°01'2 3.8
2018-Feb-16 22:30N 32°08' W 091°03'2 4.7
2018-Feb-16 22:00N 32°08' W 091°06'2 3.5
2018-Feb-16 21:30N 32°06' W 091°06'4 4.7
2018-Feb-16 20:46N 32°03' W 091°03'40 4.1
2018-Feb-16 10:57N 31°30' W 091°31'  
2018-Feb-13 11:35N 31°58' W 091°11'6 7.3
2018-Feb-13 10:49N 31°60' W 091°05'3 8.2
2018-Feb-13 10:27N 32°02' W 091°04'4 7.3
2018-Feb-13 09:52N 32°06' W 091°06'2 4.4
2018-Feb-13 09:30N 32°08' W 091°06'2 4.2
2018-Feb-13 08:56N 32°08' W 091°04'3 6.7
2018-Feb-13 08:30N 32°08' W 091°00'4 8.5
2018-Feb-13 08:00N 32°12' W 090°59'4 8.0
2018-Feb-13 07:31N 32°16' W 090°58'4 7.3
2018-Feb-13 07:00N 32°19' W 090°54'3 5.0
2018-Feb-13 06:29N 32°21' W 090°56'3 6.9
2018-Feb-13 06:00N 32°21' W 091°00'4 7.1
2018-Feb-13 05:31N 32°25' W 090°60'4 7.9
2018-Feb-13 05:00N 32°26' W 091°04'4 7.5
2018-Feb-13 04:30N 32°29' W 091°07'4 8.3
2018-Feb-13 04:00N 32°33' W 091°06'4 7.8
2018-Feb-13 03:30N 32°36' W 091°09'  
Track history (hours):
 
Tides and Currents Weather Stations Pressure Air Temp Water Temp Dewpoint Dewpoint Depression Visibility Wind Speed Wind Dir Waves Ship Positions

Jeffboat

Owner: American Commercial Lines LLC, Jeffersonville, IN. More information available from US FCC via Universal Licensing System and Coast Guard Vessel Documentation Center.

Last reported at 2018-Feb-17 12:37 UTC. Time now 2018-Feb-22 22:56 UTC.
Position N 32°41' W 091°06'.

Length 43 m; draft 3 m.

Type: Towing. MMSI: 367057720.

Date/timePositionNaut miles runAvg speedWind from/ knotsBaromVisibWave heightAir tempDewpointWater temp
2018-Feb-17 12:37N 32°41' W 091°06'1 4.9
2018-Feb-17 12:27N 32°40' W 091°07'3 4.3
2018-Feb-17 11:40N 32°38' W 091°09'1 4.5
2018-Feb-17 11:30N 32°37' W 091°09'0 0.7
2018-Feb-17 11:00N 32°37' W 091°09'1 2.6
2018-Feb-17 10:30N 32°36' W 091°08'2 4.6
2018-Feb-17 10:00N 32°34' W 091°06'2 4.8
2018-Feb-17 09:31N 32°32' W 091°06'3 5.0
2018-Feb-17 09:00N 32°29' W 091°07'2 4.4
2018-Feb-17 08:30N 32°27' W 091°05'2 4.8
2018-Feb-17 08:01N 32°26' W 091°03'2 4.7
2018-Feb-17 07:30N 32°25' W 091°00'2 3.5
2018-Feb-17 07:00N 32°24' W 090°59'2 3.1
2018-Feb-17 06:30N 32°23' W 091°00'2 4.0
2018-Feb-17 06:00N 32°21' W 090°59'2 3.8
2018-Feb-17 05:30N 32°21' W 090°56'2 4.3
2018-Feb-17 05:00N 32°20' W 090°54'2 4.0
2018-Feb-17 04:30N 32°18' W 090°55'0 0.8
2018-Feb-17 04:00N 32°18' W 090°55'0 0.0
2018-Feb-17 03:30N 32°18' W 090°55'0 0.0
2018-Feb-17 03:00N 32°18' W 090°55'0 0.0
2018-Feb-17 02:30N 32°18' W 090°55'0 0.3
2018-Feb-17 02:00N 32°18' W 090°55'2 4.0
2018-Feb-17 01:30N 32°17' W 090°57'2 4.2
2018-Feb-17 01:00N 32°15' W 090°59'2 3.8
2018-Feb-17 00:30N 32°13' W 090°59'2 4.0
2018-Feb-17 00:00N 32°11' W 090°60'2 4.1
2018-Feb-16 23:31N 32°09' W 091°00'2 4.3
2018-Feb-16 23:00N 32°07' W 091°01'2 3.8
2018-Feb-16 22:30N 32°08' W 091°03'2 4.7
2018-Feb-16 22:00N 32°08' W 091°06'2 3.5
2018-Feb-16 21:30N 32°06' W 091°06'4 4.7
2018-Feb-16 20:46N 32°03' W 091°03'40 4.1
2018-Feb-16 10:57N 31°30' W 091°31'  
2018-Feb-13 11:35N 31°58' W 091°11'6 7.3
2018-Feb-13 10:49N 31°60' W 091°05'3 8.2
2018-Feb-13 10:27N 32°02' W 091°04'4 7.3
2018-Feb-13 09:52N 32°06' W 091°06'2 4.4
2018-Feb-13 09:30N 32°08' W 091°06'2 4.2
2018-Feb-13 08:56N 32°08' W 091°04'3 6.7
2018-Feb-13 08:30N 32°08' W 091°00'4 8.5
2018-Feb-13 08:00N 32°12' W 090°59'4 8.0
2018-Feb-13 07:31N 32°16' W 090°58'4 7.3
2018-Feb-13 07:00N 32°19' W 090°54'3 5.0
2018-Feb-13 06:29N 32°21' W 090°56'3 6.9
2018-Feb-13 06:00N 32°21' W 091°00'4 7.1
2018-Feb-13 05:31N 32°25' W 090°60'4 7.9
2018-Feb-13 05:00N 32°26' W 091°04'4 7.5
2018-Feb-13 04:30N 32°29' W 091°07'4 8.3
2018-Feb-13 04:00N 32°33' W 091°06'4 7.8
2018-Feb-13 03:30N 32°36' W 091°09'  

Dump ship's entire track history